Time;durP1;ratioP1;P1;durP2;ratioP2;P2;SDS_P1;SDS_P2;PMS_P1;PMS_P2;Temp;Humidity;BMP_temperature;BMP_pressure;BME280_temperature;BME280_humidity;BME280_pressure;Samples;Min_cycle;Max_cycle;Signal;HPM_P1;HPM_P2
2023/06/28 00:01:30;;;;;;;1.08;1.08;;;;;;;;;;4722904;30;20056;-76
2023/06/28 00:03:58;;;;;;;1.00;1.00;;;;;;;;;;4716943;30;20135;-76
2023/06/28 00:06:27;;;;;;;1.05;1.00;;;;;;;;;;4722975;30;20049;-76
2023/06/28 00:08:54;;;;;;;1.10;1.10;;;;;;;;;;4719982;30;20080;-77
2023/06/28 00:11:22;;;;;;;1.17;1.10;;;;;;;;;;4726627;30;20060;-77
2023/06/28 00:13:49;;;;;;;1.42;1.33;;;;;;;;;;4720500;30;20531;-77
2023/06/28 00:16:17;;;;;;;1.10;1.10;;;;;;;;;;4723675;30;20057;-77
2023/06/28 00:18:45;;;;;;;1.20;1.08;;;;;;;;;;4719915;30;20435;-77
2023/06/28 00:21:15;;;;;;;1.15;1.05;;;;;;;;;;4723856;30;20054;-77
2023/06/28 00:23:43;;;;;;;1.35;1.20;;;;;;;;;;4723439;30;20060;-77
2023/06/28 00:26:10;;;;;;;2.97;1.40;;;;;;;;;;4721510;30;20595;-77
2023/06/28 00:28:38;;;;;;;2.10;1.30;;;;;;;;;;4722831;30;20074;-77
2023/06/28 00:31:08;;;;;;;1.73;1.52;;;;;;;;;;4734220;30;20053;-76
2023/06/28 00:33:37;;;;;;;1.50;1.40;;;;;;;;;;4724724;30;20482;-77
2023/06/28 00:36:04;;;;;;;1.10;1.10;;;;;;;;;;4721788;30;20501;-77
2023/06/28 00:38:34;;;;;;;1.85;1.30;;;;;;;;;;4721743;30;20374;-77
2023/06/28 00:41:03;;;;;;;1.38;1.27;;;;;;;;;;4735961;30;20531;-77
2023/06/28 00:43:32;;;;;;;1.40;1.40;;;;;;;;;;4723594;30;20539;-77
2023/06/28 00:46:00;;;;;;;1.45;1.10;;;;;;;;;;4719156;30;20056;-77
2023/06/28 00:48:28;;;;;;;1.90;1.42;;;;;;;;;;4723280;30;20467;-77
2023/06/28 00:50:56;;;;;;;1.20;1.15;;;;;;;;;;4721273;30;20083;-77
2023/06/28 00:53:23;;;;;;;2.20;1.25;;;;;;;;;;4719884;30;20110;-77
2023/06/28 00:55:51;;;;;;;1.30;1.08;;;;;;;;;;4719420;30;20063;-78
2023/06/28 00:58:19;;;;;;;1.30;1.27;;;;;;;;;;4730816;30;20052;-77
2023/06/28 01:00:47;;;;;;;1.20;1.20;;;;;;;;;;4724506;30;20066;-77
2023/06/28 01:03:18;;;;;;;2.28;1.20;;;;;;;;;;4718158;30;20420;-77
2023/06/28 01:06:12;;;;;;;1.30;1.30;;;;;;;;;;4739503;24;20451;-88
2023/06/28 01:10:17;;;;;;;;;;;;;;;;;;;;;
2023/06/28 01:25:28;;;;;;;1.15;1.15;;;;;;;;;;4743615;30;20040;-80
2023/06/28 01:27:56;;;;;;;1.23;1.20;;;;;;;;;;4738970;30;20219;-80
2023/06/28 01:30:25;;;;;;;2.10;1.02;;;;;;;;;;4745909;30;20095;-80
2023/06/28 01:32:53;;;;;;;1.20;1.10;;;;;;;;;;4739795;30;20092;-80
2023/06/28 01:35:21;;;;;;;1.25;1.00;;;;;;;;;;4745189;30;20059;-80
2023/06/28 01:37:49;;;;;;;1.13;0.80;;;;;;;;;;4744960;30;20052;-80
2023/06/28 01:40:17;;;;;;;0.90;0.90;;;;;;;;;;4745950;30;20105;-80
2023/06/28 01:42:44;;;;;;;1.10;1.00;;;;;;;;;;4741058;30;20125;-80
2023/06/28 01:45:12;;;;;;;1.08;1.08;;;;;;;;;;4747749;30;20052;-80
2023/06/28 01:47:40;;;;;;;2.25;1.63;;;;;;;;;;4762767;30;20097;-80
2023/06/28 01:50:08;;;;;;;2.67;1.30;;;;;;;;;;4746909;30;20499;-80
2023/06/28 01:52:35;;;;;;;0.85;0.85;;;;;;;;;;4745232;30;20066;-80
2023/06/28 01:55:03;;;;;;;1.13;1.13;;;;;;;;;;4743850;30;20063;-80
2023/06/28 01:57:30;;;;;;;0.93;0.93;;;;;;;;;;4747990;30;20052;-80
2023/06/28 01:59:57;;;;;;;1.40;0.90;;;;;;;;;;4750100;30;20405;-80
2023/06/28 02:02:25;;;;;;;1.10;1.10;;;;;;;;;;4744464;30;20082;-80
2023/06/28 02:04:53;;;;;;;1.17;1.08;;;;;;;;;;4727458;30;20106;-80
2023/06/28 02:07:20;;;;;;;1.10;1.10;;;;;;;;;;4746349;30;20155;-80
2023/06/28 02:09:48;;;;;;;0.90;0.90;;;;;;;;;;4742516;30;20063;-80
2023/06/28 02:12:15;;;;;;;2.70;1.17;;;;;;;;;;4743427;30;20051;-80
2023/06/28 02:14:42;;;;;;;1.00;1.00;;;;;;;;;;4745081;30;20139;-80
2023/06/28 02:17:13;;;;;;;1.50;1.10;;;;;;;;;;4740171;30;20052;-80
2023/06/28 02:19:42;;;;;;;0.95;0.95;;;;;;;;;;4749226;30;20106;-81
2023/06/28 02:22:09;;;;;;;0.93;0.93;;;;;;;;;;4745858;30;20052;-80
2023/06/28 02:24:37;;;;;;;0.85;0.82;;;;;;;;;;4745744;30;20203;-80
2023/06/28 02:27:05;;;;;;;1.10;1.10;;;;;;;;;;4746850;30;20227;-80
2023/06/28 02:29:32;;;;;;;1.20;1.10;;;;;;;;;;4750090;30;20056;-80
2023/06/28 02:32:00;;;;;;;1.15;1.10;;;;;;;;;;4749303;30;20052;-80
2023/06/28 02:34:27;;;;;;;1.05;1.05;;;;;;;;;;4741994;30;20053;-80
2023/06/28 02:36:55;;;;;;;1.00;1.00;;;;;;;;;;4747563;30;20051;-80
2023/06/28 02:39:22;;;;;;;1.55;1.30;;;;;;;;;;4754063;30;20056;-80
2023/06/28 02:41:50;;;;;;;2.03;1.40;;;;;;;;;;4747355;30;20727;-80
2023/06/28 02:44:18;;;;;;;0.85;0.85;;;;;;;;;;4740319;30;20056;-80
2023/06/28 02:46:46;;;;;;;1.10;1.10;;;;;;;;;;4745529;30;20061;-79
2023/06/28 02:49:14;;;;;;;1.30;1.00;;;;;;;;;;4738416;30;20060;-80
2023/06/28 02:51:41;;;;;;;1.23;1.10;;;;;;;;;;4747481;30;20056;-79
2023/06/28 02:54:12;;;;;;;1.02;1.02;;;;;;;;;;4746372;30;20122;-79
2023/06/28 02:56:40;;;;;;;1.00;1.00;;;;;;;;;;4741725;30;20067;-79
2023/06/28 02:59:41;;;;;;;0.88;0.88;;;;;;;;;;4745874;30;20067;-79
2023/06/28 03:02:09;;;;;;;0.90;0.90;;;;;;;;;;4746054;30;20056;-79
2023/06/28 03:04:39;;;;;;;1.10;1.10;;;;;;;;;;4744094;30;20041;-80
2023/06/28 03:07:15;;;;;;;0.80;0.80;;;;;;;;;;4742884;30;20048;-80
2023/06/28 03:09:43;;;;;;;0.85;0.85;;;;;;;;;;4750186;30;20059;-79
2023/06/28 03:12:11;;;;;;;0.82;0.82;;;;;;;;;;4747668;30;20051;-79
2023/06/28 03:14:39;;;;;;;1.05;1.05;;;;;;;;;;4757785;30;20092;-79
2023/06/28 03:17:07;;;;;;;1.00;1.00;;;;;;;;;;4744525;30;20052;-79
2023/06/28 03:19:35;;;;;;;1.35;1.15;;;;;;;;;;4749567;30;20135;-79
2023/06/28 03:22:03;;;;;;;1.52;1.10;;;;;;;;;;4748603;30;20056;-79
2023/06/28 03:24:30;;;;;;;1.20;1.10;;;;;;;;;;4750518;30;20501;-79
2023/06/28 03:26:58;;;;;;;0.85;0.85;;;;;;;;;;4758709;30;20048;-80
2023/06/28 03:29:26;;;;;;;1.17;1.10;;;;;;;;;;4762722;30;20059;-79
2023/06/28 03:31:55;;;;;;;0.80;0.80;;;;;;;;;;4748195;30;20072;-79
2023/06/28 03:34:23;;;;;;;1.15;1.00;;;;;;;;;;4751149;30;20156;-79
2023/06/28 03:36:50;;;;;;;1.23;1.13;;;;;;;;;;4745234;30;20087;-80
2023/06/28 03:39:31;;;;;;;1.10;1.00;;;;;;;;;;4752160;30;20059;-79
2023/06/28 03:41:58;;;;;;;2.25;0.90;;;;;;;;;;4741594;30;20057;-79
2023/06/28 03:44:26;;;;;;;1.25;1.15;;;;;;;;;;4742147;30;20109;-79
2023/06/28 03:46:54;;;;;;;1.30;1.08;;;;;;;;;;4745590;30;20075;-79
2023/06/28 03:49:21;;;;;;;2.28;1.00;;;;;;;;;;4758886;30;21302;-78
2023/06/28 03:51:49;;;;;;;1.30;0.82;;;;;;;;;;4732524;30;20117;-78
2023/06/28 03:54:16;;;;;;;0.90;0.90;;;;;;;;;;4742923;30;20435;-79
2023/06/28 03:56:48;;;;;;;0.93;0.93;;;;;;;;;;4742860;30;20063;-79
2023/06/28 03:59:15;;;;;;;1.20;0.93;;;;;;;;;;4759445;30;20107;-79
2023/06/28 04:01:42;;;;;;;0.98;0.98;;;;;;;;;;4740732;30;20575;-78
2023/06/28 04:04:14;;;;;;;1.33;1.00;;;;;;;;;;4743428;30;20063;-79
2023/06/28 04:06:41;;;;;;;1.20;1.20;;;;;;;;;;4744704;30;20057;-78
2023/06/28 04:09:09;;;;;;;0.90;0.90;;;;;;;;;;4741758;30;20052;-78
2023/06/28 04:11:36;;;;;;;0.88;0.88;;;;;;;;;;4748454;30;20060;-79
2023/06/28 04:14:04;;;;;;;1.05;1.05;;;;;;;;;;4741136;30;20044;-78
2023/06/28 04:16:31;;;;;;;1.40;1.30;;;;;;;;;;4739177;30;20137;-78
2023/06/28 04:19:00;;;;;;;1.10;1.10;;;;;;;;;;4746105;30;20048;-78
2023/06/28 04:21:27;;;;;;;2.47;1.00;;;;;;;;;;4752111;30;20050;-78
2023/06/28 04:23:57;;;;;;;1.15;1.10;;;;;;;;;;4736173;30;20052;-78
2023/06/28 04:26:25;;;;;;;1.20;1.10;;;;;;;;;;4735460;30;20051;-77
2023/06/28 04:28:53;;;;;;;1.13;0.98;;;;;;;;;;4745168;30;20056;-79
2023/06/28 04:31:20;;;;;;;0.90;0.90;;;;;;;;;;4739345;30;20045;-78
2023/06/28 04:33:48;;;;;;;0.90;0.90;;;;;;;;;;4739976;30;20045;-78
2023/06/28 04:36:21;;;;;;;1.27;1.10;;;;;;;;;;4741222;30;20133;-79
2023/06/28 04:38:52;;;;;;;1.00;1.00;;;;;;;;;;4745950;30;20523;-79
2023/06/28 04:41:20;;;;;;;;;;;;;;;;;;4745320;30;20056;-79
2023/06/28 04:43:47;;;;;;;1.23;1.00;;;;;;;;;;4744697;30;19936;-78
2023/06/28 04:46:15;;;;;;;1.20;1.10;;;;;;;;;;4743577;30;20067;-79
2023/06/28 04:48:43;;;;;;;1.10;1.10;;;;;;;;;;4745064;30;20558;-79
2023/06/28 04:51:11;;;;;;;0.90;0.90;;;;;;;;;;4746230;30;20052;-80
2023/06/28 04:53:38;;;;;;;1.38;1.30;;;;;;;;;;4744981;30;20062;-79
2023/06/28 04:56:06;;;;;;;0.90;0.90;;;;;;;;;;4742966;30;20055;-80
2023/06/28 04:58:33;;;;;;;1.00;1.00;;;;;;;;;;4742107;30;20060;-79
2023/06/28 05:01:06;;;;;;;1.00;1.00;;;;;;;;;;4741143;30;20401;-79
2023/06/28 05:03:38;;;;;;;0.80;0.80;;;;;;;;;;4745261;30;20052;-78
2023/06/28 05:06:06;;;;;;;0.90;0.90;;;;;;;;;;4743178;30;20205;-79
2023/06/28 05:08:34;;;;;;;0.90;0.90;;;;;;;;;;4743489;30;20624;-79
2023/06/28 05:11:02;;;;;;;1.20;1.17;;;;;;;;;;4743947;30;20559;-78
2023/06/28 05:13:29;;;;;;;1.08;1.08;;;;;;;;;;4742996;30;20420;-79
2023/06/28 05:15:57;;;;;;;1.00;1.00;;;;;;;;;;4741873;30;20145;-78
2023/06/28 05:18:24;;;;;;;1.15;1.02;;;;;;;;;;4742212;30;20074;-79
2023/06/28 05:20:52;;;;;;;0.90;0.90;;;;;;;;;;4744671;30;20114;-78
2023/06/28 05:23:20;;;;;;;1.15;1.10;;;;;;;;;;4742428;30;20156;-78
2023/06/28 05:25:48;;;;;;;1.10;1.10;;;;;;;;;;4743998;30;20056;-78
2023/06/28 05:28:18;;;;;;;1.40;1.30;;;;;;;;;;4742733;30;20059;-78
2023/06/28 05:30:45;;;;;;;0.90;0.90;;;;;;;;;;4741557;30;20036;-78
2023/06/28 05:33:13;;;;;;;1.15;1.08;;;;;;;;;;4743636;30;20071;-78
2023/06/28 05:35:41;;;;;;;1.02;1.00;;;;;;;;;;4742929;30;20052;-78
2023/06/28 05:38:08;;;;;;;0.93;0.93;;;;;;;;;;4742043;30;20514;-78
2023/06/28 05:40:36;;;;;;;0.88;0.88;;;;;;;;;;4747043;30;20064;-78
2023/06/28 05:43:03;;;;;;;1.00;1.00;;;;;;;;;;4741498;30;20073;-78
2023/06/28 05:45:31;;;;;;;1.00;1.00;;;;;;;;;;4741785;30;20437;-78
2023/06/28 05:47:59;;;;;;;1.52;1.00;;;;;;;;;;4738439;30;20552;-78
2023/06/28 05:50:27;;;;;;;1.25;1.23;;;;;;;;;;4745300;30;20052;-78
2023/06/28 05:52:55;;;;;;;1.00;1.00;;;;;;;;;;4745820;30;20060;-77
2023/06/28 05:55:22;;;;;;;3.65;1.00;;;;;;;;;;4742998;30;20068;-78
2023/06/28 05:57:50;;;;;;;1.30;1.20;;;;;;;;;;4745685;30;20135;-78
2023/06/28 06:00:17;;;;;;;0.93;0.90;;;;;;;;;;4746617;30;20060;-78
2023/06/28 06:02:45;;;;;;;0.98;0.98;;;;;;;;;;4744465;30;20087;-77
2023/06/28 06:05:13;;;;;;;0.95;0.95;;;;;;;;;;4743920;30;20488;-76
2023/06/28 06:07:41;;;;;;;1.13;1.13;;;;;;;;;;4746208;30;20056;-78
2023/06/28 06:10:09;;;;;;;1.30;1.20;;;;;;;;;;4745774;30;20052;-77
2023/06/28 06:12:39;;;;;;;1.20;1.20;;;;;;;;;;4744971;30;20060;-78
2023/06/28 06:15:09;;;;;;;1.25;1.25;;;;;;;;;;4744605;30;20052;-78
2023/06/28 06:17:36;;;;;;;1.60;1.60;;;;;;;;;;4747709;30;20339;-77
2023/06/28 06:20:04;;;;;;;1.30;1.20;;;;;;;;;;4745775;30;20152;-77
2023/06/28 06:22:32;;;;;;;1.30;1.20;;;;;;;;;;4742339;30;20574;-77
2023/06/28 06:24:59;;;;;;;1.50;1.40;;;;;;;;;;4744644;30;20504;-77
2023/06/28 06:27:27;;;;;;;1.50;1.40;;;;;;;;;;4743967;30;20083;-77
2023/06/28 06:29:54;;;;;;;1.10;1.10;;;;;;;;;;4743897;30;20056;-77
2023/06/28 06:32:22;;;;;;;1.38;1.30;;;;;;;;;;4743033;30;20072;-77
2023/06/28 06:34:50;;;;;;;1.40;1.30;;;;;;;;;;4744695;30;20386;-77
2023/06/28 06:37:17;;;;;;;1.35;1.25;;;;;;;;;;4745968;30;20158;-77
2023/06/28 06:39:45;;;;;;;2.70;1.33;;;;;;;;;;4741782;30;20048;-77
2023/06/28 06:42:12;;;;;;;2.00;1.65;;;;;;;;;;4743548;30;20071;-77
2023/06/28 06:44:40;;;;;;;1.58;1.48;;;;;;;;;;4742366;30;20282;-78
2023/06/28 06:47:08;;;;;;;1.70;1.60;;;;;;;;;;4742502;30;20049;-77
2023/06/28 06:49:35;;;;;;;1.33;1.33;;;;;;;;;;4744791;30;20052;-77
2023/06/28 06:52:03;;;;;;;1.63;1.52;;;;;;;;;;4745372;30;20422;-77
2023/06/28 06:54:30;;;;;;;1.45;1.35;;;;;;;;;;4743727;30;20047;-77
2023/06/28 06:57:02;;;;;;;1.55;1.48;;;;;;;;;;4745095;30;20052;-77
2023/06/28 06:59:29;;;;;;;1.50;1.50;;;;;;;;;;4744600;30;20139;-77
2023/06/28 07:01:57;;;;;;;1.40;1.30;;;;;;;;;;4743198;30;20151;-77
2023/06/28 07:04:24;;;;;;;1.40;1.40;;;;;;;;;;4744084;30;20131;-77
2023/06/28 07:06:53;;;;;;;1.77;1.67;;;;;;;;;;4797722;24;20064;-80
2023/06/28 07:09:20;;;;;;;2.08;1.70;;;;;;;;;;4741985;30;20052;-80
2023/06/28 07:11:48;;;;;;;1.88;1.75;;;;;;;;;;4732113;30;20063;-81
2023/06/28 07:14:16;;;;;;;1.48;1.35;;;;;;;;;;4730659;30;20064;-80
2023/06/28 07:16:45;;;;;;;1.85;1.75;;;;;;;;;;4726440;30;20432;-78
2023/06/28 07:19:13;;;;;;;1.40;1.30;;;;;;;;;;4719724;30;20081;-79
2023/06/28 07:21:43;;;;;;;1.52;1.50;;;;;;;;;;4726696;30;20103;-78
2023/06/28 07:24:11;;;;;;;1.60;1.50;;;;;;;;;;4725433;30;20151;-80
2023/06/28 07:26:38;;;;;;;1.77;1.67;;;;;;;;;;4725560;30;20053;-80
2023/06/28 07:29:16;;;;;;;1.50;1.40;;;;;;;;;;4726880;30;20052;-79
2023/06/28 07:31:44;;;;;;;1.27;1.20;;;;;;;;;;4726793;30;20056;-79
2023/06/28 07:34:14;;;;;;;2.05;1.67;;;;;;;;;;4727422;30;20247;-79
2023/06/28 07:36:42;;;;;;;2.25;1.48;;;;;;;;;;4736070;30;20087;-79
2023/06/28 07:39:09;;;;;;;1.73;1.42;;;;;;;;;;4723974;30;20064;-79
2023/06/28 07:41:37;;;;;;;2.53;1.38;;;;;;;;;;4727698;30;20084;-78
2023/06/28 07:44:05;;;;;;;1.48;1.40;;;;;;;;;;4724623;30;20053;-80
2023/06/28 07:46:32;;;;;;;1.25;1.15;;;;;;;;;;4725456;30;20052;-79
2023/06/28 07:49:00;;;;;;;1.30;1.30;;;;;;;;;;4726052;30;20061;-78
2023/06/28 07:51:30;;;;;;;3.22;1.30;;;;;;;;;;4731630;30;20055;-79
2023/06/28 07:53:58;;;;;;;1.20;1.20;;;;;;;;;;4728297;30;20060;-80
2023/06/28 07:56:25;;;;;;;2.85;1.20;;;;;;;;;;4730337;30;20068;-78
2023/06/28 07:58:53;;;;;;;1.42;1.17;;;;;;;;;;4728733;30;20060;-78
2023/06/28 08:01:22;;;;;;;1.23;1.20;;;;;;;;;;4728384;30;20130;-78
2023/06/28 08:03:50;;;;;;;0.85;0.85;;;;;;;;;;4729819;30;20060;-78
2023/06/28 08:06:17;;;;;;;1.35;1.25;;;;;;;;;;4729512;30;20053;-78
2023/06/28 08:08:47;;;;;;;0.80;0.80;;;;;;;;;;4730517;30;20064;-78
2023/06/28 08:11:14;;;;;;;1.10;1.10;;;;;;;;;;4726653;30;21772;-80
2023/06/28 08:13:43;;;;;;;1.02;1.02;;;;;;;;;;4726919;30;20064;-79
2023/06/28 08:16:11;;;;;;;1.08;1.08;;;;;;;;;;4730433;30;20063;-79
2023/06/28 08:18:38;;;;;;;0.93;0.93;;;;;;;;;;4730231;30;20424;-78
2023/06/28 08:21:06;;;;;;;1.25;1.10;;;;;;;;;;4729396;30;20060;-78
2023/06/28 08:23:33;;;;;;;0.98;0.98;;;;;;;;;;4729137;30;20068;-78
2023/06/28 08:26:01;;;;;;;1.92;1.48;;;;;;;;;;4730163;30;20044;-78
2023/06/28 08:28:29;;;;;;;1.20;1.10;;;;;;;;;;4729295;30;20440;-78
2023/06/28 08:30:56;;;;;;;1.25;1.23;;;;;;;;;;4729336;30;20052;-79
2023/06/28 08:33:24;;;;;;;0.90;0.90;;;;;;;;;;4729802;30;20064;-79
2023/06/28 08:35:52;;;;;;;1.10;1.10;;;;;;;;;;4730638;30;20064;-77
2023/06/28 08:38:19;;;;;;;1.67;1.58;;;;;;;;;;4730118;30;20357;-78
2023/06/28 08:40:48;;;;;;;1.50;1.40;;;;;;;;;;4743383;30;20057;-79
2023/06/28 08:43:19;;;;;;;1.13;1.13;;;;;;;;;;4730084;30;20068;-79
2023/06/28 08:45:46;;;;;;;1.00;1.00;;;;;;;;;;4728211;30;20064;-78
2023/06/28 08:48:14;;;;;;;1.23;0.90;;;;;;;;;;4743729;30;20040;-76
2023/06/28 08:50:57;;;;;;;0.77;0.75;;;;;;;;;;4742156;30;20048;-77
2023/06/28 08:53:28;;;;;;;1.25;1.15;;;;;;;;;;4727241;30;20052;-77
2023/06/28 08:55:56;;;;;;;0.80;0.80;;;;;;;;;;4729914;30;20056;-77
2023/06/28 08:58:24;;;;;;;1.10;1.10;;;;;;;;;;4726557;30;20060;-77
2023/06/28 09:00:51;;;;;;;1.17;1.08;;;;;;;;;;4726660;30;20110;-78
2023/06/28 09:03:20;;;;;;;1.35;1.17;;;;;;;;;;4728106;30;20419;-79
2023/06/28 09:05:48;;;;;;;1.77;1.30;;;;;;;;;;4729769;30;20139;-78
2023/06/28 09:08:18;;;;;;;1.95;1.25;;;;;;;;;;4730948;30;20100;-78
2023/06/28 09:10:46;;;;;;;0.80;0.80;;;;;;;;;;4730296;30;20108;-79
2023/06/28 09:13:19;;;;;;;1.88;1.00;;;;;;;;;;4730813;30;20492;-80
2023/06/28 09:15:48;;;;;;;1.13;1.02;;;;;;;;;;4729649;30;20068;-79
2023/06/28 09:18:15;;;;;;;1.10;1.10;;;;;;;;;;4729326;30;20128;-79
2023/06/28 09:20:50;;;;;;;0.90;0.90;;;;;;;;;;4725816;30;20068;-78
2023/06/28 09:23:22;;;;;;;1.23;1.15;;;;;;;;;;4729160;30;20065;-79
2023/06/28 09:25:50;;;;;;;1.17;1.10;;;;;;;;;;4730823;30;20056;-77
2023/06/28 09:28:20;;;;;;;0.93;0.90;;;;;;;;;;4727642;30;20060;-79
2023/06/28 09:30:53;;;;;;;3.22;1.10;;;;;;;;;;4726004;30;20065;-78
2023/06/28 09:33:21;;;;;;;0.90;0.90;;;;;;;;;;4728352;30;20048;-78
2023/06/28 09:35:53;;;;;;;1.25;1.17;;;;;;;;;;4729607;30;20121;-78
2023/06/28 09:38:21;;;;;;;1.33;1.23;;;;;;;;;;4726234;30;20470;-78
2023/06/28 09:40:54;;;;;;;1.65;1.55;;;;;;;;;;4728313;30;20142;-79
2023/06/28 09:43:22;;;;;;;0.95;0.95;;;;;;;;;;4727489;30;20065;-79
2023/06/28 09:45:50;;;;;;;0.88;0.88;;;;;;;;;;4729430;30;20052;-79
2023/06/28 09:48:22;;;;;;;1.00;1.00;;;;;;;;;;4729449;30;20053;-78
2023/06/28 09:50:49;;;;;;;1.10;1.00;;;;;;;;;;4723817;30;20044;-78
2023/06/28 09:53:19;;;;;;;1.08;1.02;;;;;;;;;;4729325;30;20060;-79
2023/06/28 09:55:49;;;;;;;1.52;1.40;;;;;;;;;;4723382;30;20064;-78
2023/06/28 09:58:17;;;;;;;1.17;0.90;;;;;;;;;;4723127;30;20076;-79
2023/06/28 10:00:49;;;;;;;1.23;0.90;;;;;;;;;;4727550;30;20436;-79
2023/06/28 10:03:18;;;;;;;0.70;0.70;;;;;;;;;;4727307;30;20103;-78
2023/06/28 10:05:46;;;;;;;0.80;0.80;;;;;;;;;;4729615;30;20060;-78
2023/06/28 10:08:14;;;;;;;1.35;1.00;;;;;;;;;;4732805;30;20131;-78
2023/06/28 10:10:43;;;;;;;0.82;0.82;;;;;;;;;;4731618;30;20095;-80
2023/06/28 10:13:12;;;;;;;0.90;0.90;;;;;;;;;;4734879;30;20220;-79
2023/06/28 10:15:51;;;;;;;0.80;0.80;;;;;;;;;;4734984;30;20049;-80
2023/06/28 10:18:19;;;;;;;0.93;0.93;;;;;;;;;;4740089;30;20535;-78
2023/06/28 10:20:47;;;;;;;0.90;0.90;;;;;;;;;;4728470;30;20458;-76
2023/06/28 10:23:16;;;;;;;1.20;1.10;;;;;;;;;;4727193;30;20580;-77
2023/06/28 10:25:47;;;;;;;1.63;1.20;;;;;;;;;;4720965;30;20114;-77
2023/06/28 10:28:15;;;;;;;2.17;1.20;;;;;;;;;;4728171;30;20055;-78
2023/06/28 10:30:43;;;;;;;1.35;0.90;;;;;;;;;;4718531;30;20350;-78
2023/06/28 10:33:10;;;;;;;1.50;0.90;;;;;;;;;;4727006;30;20493;-79
2023/06/28 10:35:39;;;;;;;0.85;0.85;;;;;;;;;;4718872;30;20409;-78
2023/06/28 10:38:07;;;;;;;1.38;0.90;;;;;;;;;;4720324;30;20049;-78
2023/06/28 10:40:35;;;;;;;0.70;0.70;;;;;;;;;;4736768;30;20227;-78
2023/06/28 10:43:03;;;;;;;0.80;0.80;;;;;;;;;;4720810;30;20053;-79
2023/06/28 10:45:37;;;;;;;1.35;0.77;;;;;;;;;;4728410;30;20481;-79
2023/06/28 10:48:05;;;;;;;0.73;0.73;;;;;;;;;;4731897;30;20496;-78
2023/06/28 10:50:42;;;;;;;0.70;0.70;;;;;;;;;;4728912;30;20055;-79
2023/06/28 10:53:20;;;;;;;0.65;0.65;;;;;;;;;;4718591;30;20057;-79
2023/06/28 10:56:07;;;;;;;0.70;0.70;;;;;;;;;;4737625;30;20471;-79
2023/06/28 10:58:38;;;;;;;1.23;1.10;;;;;;;;;;4726821;30;20737;-78
2023/06/28 11:01:13;;;;;;;0.77;0.75;;;;;;;;;;4729472;30;20052;-77
2023/06/28 11:03:42;;;;;;;0.80;0.80;;;;;;;;;;4717979;30;20063;-78
2023/06/28 11:06:11;;;;;;;1.77;0.73;;;;;;;;;;4724774;30;20052;-78
2023/06/28 11:08:45;;;;;;;0.75;0.75;;;;;;;;;;4724054;30;20067;-78
2023/06/28 11:11:23;;;;;;;0.90;0.90;;;;;;;;;;4728567;30;20096;-78
2023/06/28 11:13:50;;;;;;;0.85;0.70;;;;;;;;;;4729635;30;20056;-78
2023/06/28 11:16:22;;;;;;;0.73;0.73;;;;;;;;;;4728974;30;20503;-78
2023/06/28 11:18:51;;;;;;;0.60;0.60;;;;;;;;;;4725375;30;20455;-79
2023/06/28 11:21:27;;;;;;;1.40;0.70;;;;;;;;;;4727366;30;20056;-78
2023/06/28 11:23:56;;;;;;;1.10;0.98;;;;;;;;;;4726498;30;20063;-78
2023/06/28 11:26:36;;;;;;;0.68;0.68;;;;;;;;;;4724918;30;20088;-78
2023/06/28 11:29:20;;;;;;;0.80;0.80;;;;;;;;;;4727262;30;20122;-78
2023/06/28 11:31:51;;;;;;;0.60;0.60;;;;;;;;;;4719208;30;20315;-79
2023/06/28 11:34:19;;;;;;;;;;;;;;;;;;4731453;30;20056;-78
2023/06/28 11:36:48;;;;;;;1.17;0.60;;;;;;;;;;4729580;30;20462;-78
2023/06/28 11:39:17;;;;;;;0.88;0.70;;;;;;;;;;4729394;30;20060;-78
2023/06/28 11:41:45;;;;;;;0.60;0.60;;;;;;;;;;4730111;30;20067;-78
2023/06/28 11:44:13;;;;;;;0.70;0.70;;;;;;;;;;4729403;30;20052;-80
2023/06/28 11:46:45;;;;;;;0.60;0.60;;;;;;;;;;4729662;30;20044;-77
2023/06/28 11:49:21;;;;;;;0.50;0.50;;;;;;;;;;4721453;30;20648;-77
2023/06/28 11:51:51;;;;;;;0.60;0.55;;;;;;;;;;4729574;30;20052;-77
2023/06/28 11:54:19;;;;;;;0.60;0.60;;;;;;;;;;4731344;30;20044;-78
2023/06/28 11:56:49;;;;;;;0.70;0.70;;;;;;;;;;4724127;30;20137;-78
2023/06/28 11:59:18;;;;;;;0.75;0.73;;;;;;;;;;4731942;30;20132;-78
2023/06/28 12:01:46;;;;;;;0.60;0.60;;;;;;;;;;4730349;30;20109;-78
2023/06/28 12:04:14;;;;;;;0.77;0.60;;;;;;;;;;4724739;30;20052;-80
2023/06/28 12:06:46;;;;;;;0.50;0.50;;;;;;;;;;4729893;30;20072;-78
2023/06/28 12:09:19;;;;;;;0.50;0.50;;;;;;;;;;4736766;30;20053;-78
2023/06/28 12:11:54;;;;;;;0.60;0.60;;;;;;;;;;4733414;30;20160;-78
2023/06/28 12:14:22;;;;;;;0.63;0.63;;;;;;;;;;4727232;30;20049;-79
2023/06/28 12:16:52;;;;;;;0.52;0.52;;;;;;;;;;4736677;30;20135;-77
2023/06/28 12:19:20;;;;;;;0.60;0.60;;;;;;;;;;4729821;30;20060;-78
2023/06/28 12:21:48;;;;;;;0.60;0.60;;;;;;;;;;4729974;30;20056;-78
2023/06/28 12:24:16;;;;;;;0.60;0.60;;;;;;;;;;4729086;30;20472;-77
2023/06/28 12:26:45;;;;;;;0.70;0.70;;;;;;;;;;4728850;30;20582;-78
2023/06/28 12:29:12;;;;;;;0.80;0.80;;;;;;;;;;4729204;30;20048;-78
2023/06/28 12:31:45;;;;;;;0.57;0.57;;;;;;;;;;4728918;30;20079;-78
2023/06/28 12:34:23;;;;;;;0.70;0.70;;;;;;;;;;4728741;30;20508;-79
2023/06/28 12:36:51;;;;;;;0.68;0.60;;;;;;;;;;4729609;30;20537;-76
2023/06/28 12:39:26;;;;;;;0.82;0.70;;;;;;;;;;4724191;30;20071;-78
2023/06/28 12:42:08;;;;;;;0.73;0.73;;;;;;;;;;4725362;30;20065;-78
2023/06/28 12:44:49;;;;;;;0.70;0.70;;;;;;;;;;4731990;30;20161;-77
2023/06/28 12:47:17;;;;;;;;;;;;;;;;;;4730888;30;20514;-78
2023/06/28 12:49:44;;;;;;;0.50;0.50;;;;;;;;;;4728568;30;19926;-77
2023/06/28 12:52:12;;;;;;;0.70;0.70;;;;;;;;;;4728867;30;20053;-77
2023/06/28 12:54:39;;;;;;;0.50;0.50;;;;;;;;;;4728699;30;20057;-78
2023/06/28 12:57:07;;;;;;;0.90;0.90;;;;;;;;;;4718493;30;20060;-77
2023/06/28 12:59:35;;;;;;;0.70;0.70;;;;;;;;;;4725205;30;20524;-77
2023/06/28 13:02:03;;;;;;;0.63;0.63;;;;;;;;;;4725974;30;20048;-77
2023/06/28 13:04:35;;;;;;;0.85;0.60;;;;;;;;;;4727918;30;20060;-77
2023/06/28 13:07:07;;;;;;;2.42;0.80;;;;;;;;;;4809577;24;20059;-77
2023/06/28 13:09:35;;;;;;;0.65;0.65;;;;;;;;;;4762284;30;20044;-77
2023/06/28 13:12:04;;;;;;;2.17;0.68;;;;;;;;;;4763196;30;20414;-74
2023/06/28 13:14:31;;;;;;;0.60;0.60;;;;;;;;;;4762149;30;20503;-76
2023/06/28 13:16:59;;;;;;;0.68;0.68;;;;;;;;;;4744772;29;20058;-75
2023/06/28 13:19:26;;;;;;;0.60;0.60;;;;;;;;;;4752665;30;20071;-75
2023/06/28 13:21:55;;;;;;;0.50;0.50;;;;;;;;;;4762889;30;20337;-75
2023/06/28 13:24:23;;;;;;;0.88;0.80;;;;;;;;;;4755493;30;20148;-77
2023/06/28 13:26:51;;;;;;;0.90;0.70;;;;;;;;;;4760390;30;20048;-76
2023/06/28 13:29:19;;;;;;;0.50;0.50;;;;;;;;;;4751926;29;20056;-75
2023/06/28 13:31:46;;;;;;;0.60;0.60;;;;;;;;;;4746859;30;20056;-75
2023/06/28 13:34:14;;;;;;;0.70;0.70;;;;;;;;;;4749843;30;20055;-76
2023/06/28 13:36:44;;;;;;;0.70;0.68;;;;;;;;;;4747656;30;20174;-76
2023/06/28 13:39:11;;;;;;;0.60;0.60;;;;;;;;;;4759334;30;20060;-75
2023/06/28 13:41:42;;;;;;;1.17;0.80;;;;;;;;;;4747523;30;20132;-75
2023/06/28 13:44:10;;;;;;;1.73;0.90;;;;;;;;;;4749044;30;20793;-75
2023/06/28 13:46:37;;;;;;;0.50;0.50;;;;;;;;;;4754587;30;20608;-76
2023/06/28 13:49:05;;;;;;;0.60;0.60;;;;;;;;;;4758790;30;20135;-78
2023/06/28 13:51:33;;;;;;;0.70;0.70;;;;;;;;;;4760126;30;20052;-79
2023/06/28 13:54:00;;;;;;;0.60;0.60;;;;;;;;;;4754886;30;20241;-77
2023/06/28 13:56:28;;;;;;;0.70;0.70;;;;;;;;;;4760748;30;20138;-76
2023/06/28 13:58:56;;;;;;;0.63;0.63;;;;;;;;;;4754330;29;20058;-78
2023/06/28 14:01:24;;;;;;;0.70;0.70;;;;;;;;;;4756068;30;20100;-81
2023/06/28 14:03:52;;;;;;;0.60;0.60;;;;;;;;;;4754358;30;20059;-75
2023/06/28 14:06:19;;;;;;;3.50;0.77;;;;;;;;;;4762581;30;20052;-77
2023/06/28 14:08:46;;;;;;;0.77;0.60;;;;;;;;;;4758298;29;20236;-77
2023/06/28 14:11:15;;;;;;;0.70;0.70;;;;;;;;;;4759245;30;20590;-76
2023/06/28 14:13:43;;;;;;;0.70;0.70;;;;;;;;;;4761485;30;20154;-77
2023/06/28 14:16:10;;;;;;;0.68;0.68;;;;;;;;;;4761420;30;20058;-77
2023/06/28 14:18:38;;;;;;;0.70;0.70;;;;;;;;;;4759980;30;20056;-78
2023/06/28 14:21:05;;;;;;;1.65;0.63;;;;;;;;;;4761907;30;20051;-78
2023/06/28 14:23:33;;;;;;;1.08;0.70;;;;;;;;;;4761861;30;20136;-78
2023/06/28 14:26:01;;;;;;;0.80;0.80;;;;;;;;;;4743860;30;20048;-79
2023/06/28 14:28:30;;;;;;;0.70;0.70;;;;;;;;;;4756471;30;20055;-78
2023/06/28 14:30:58;;;;;;;1.50;0.70;;;;;;;;;;4756402;30;20187;-79
2023/06/28 14:33:27;;;;;;;0.70;0.50;;;;;;;;;;4757098;30;20144;-78
2023/06/28 14:35:54;;;;;;;0.60;0.60;;;;;;;;;;4753203;30;20060;-78
2023/06/28 14:38:21;;;;;;;0.90;0.90;;;;;;;;;;4763550;30;20102;-78
2023/06/28 14:40:49;;;;;;;0.90;0.90;;;;;;;;;;4759544;30;20439;-78
2023/06/28 14:43:17;;;;;;;0.80;0.80;;;;;;;;;;4757938;30;20774;-78
2023/06/28 14:45:45;;;;;;;0.80;0.80;;;;;;;;;;4763030;30;20412;-77
2023/06/28 14:48:12;;;;;;;0.65;0.65;;;;;;;;;;4764200;30;20159;-78
2023/06/28 14:50:40;;;;;;;0.82;0.68;;;;;;;;;;4763742;30;20056;-78
2023/06/28 14:53:08;;;;;;;0.70;0.70;;;;;;;;;;4758372;30;20063;-78
2023/06/28 14:55:36;;;;;;;1.27;0.60;;;;;;;;;;4761356;30;20515;-79
2023/06/28 14:58:16;;;;;;;0.63;0.63;;;;;;;;;;4762280;30;20067;-78
2023/06/28 15:00:43;;;;;;;0.52;0.52;;;;;;;;;;4765973;30;20063;-78
2023/06/28 15:03:12;;;;;;;1.10;0.60;;;;;;;;;;4763175;30;20079;-76
2023/06/28 15:05:40;;;;;;;1.05;0.95;;;;;;;;;;4763302;30;20060;-78
2023/06/28 15:08:08;;;;;;;0.77;0.70;;;;;;;;;;4762259;30;20524;-78
2023/06/28 15:10:37;;;;;;;1.50;1.30;;;;;;;;;;4762583;30;20054;-76